Linzy — SIRU — position and weather

sailwx.info

Track history (hours):
 
Tides and Currents Weather Stations Pressure Air Temp Water Temp Dewpoint Dewpoint Depression Visibility Wind Speed Wind Dir Waves Ship Positions

Linzy

Last reported at 2015-May-21 12:32 UTC. Time now 2015-May-25 09:26 UTC.
Position N 55°32' E 014°47'.

Length 15 m.

Type: Fishing. MMSI: 265507290.

Date/timePositionNaut miles runAvg speedWind from/ knotsBaromVisibWave heightAir tempDewpointWater temp
2015-May-21 12:32N 55°32' E 014°47'5 1.7
2015-May-21 09:31N 55°31' E 014°56'2 1.5
2015-May-21 08:18N 55°30' E 014°58'2 2.4
2015-May-21 07:17N 55°28' E 014°56'3 3.0
2015-May-21 06:18N 55°27' E 014°51'2 3.0
2015-May-21 05:33N 55°27' E 014°47'4 3.0
2015-May-21 04:07N 55°27' E 014°40'12 0.2
2015-May-19 00:29N 55°33' E 014°22'0 0.0
2015-May-18 23:17N 55°33' E 014°22'0 0.0
2015-May-18 22:17N 55°33' E 014°22'0 0.0
2015-May-18 21:23N 55°33' E 014°22'0 0.0
2015-May-18 20:29N 55°33' E 014°22'0 0.0
2015-May-18 19:29N 55°33' E 014°22'0 0.0
2015-May-18 18:29N 55°33' E 014°22'0 0.0
2015-May-18 17:29N 55°33' E 014°22'0 0.0
2015-May-18 16:29N 55°33' E 014°22'5 5.2
2015-May-18 15:33N 55°35' E 014°30'7 6.5
2015-May-18 14:31N 55°36' E 014°41'2 2.0
2015-May-18 13:33N 55°36' E 014°45'3 2.9
2015-May-18 12:34N 55°36' E 014°50'3 2.9
2015-May-18 11:31N 55°36' E 014°55'3 2.9
2015-May-18 10:23N 55°36' E 015°01'7 1.4
2015-May-18 05:32N 55°35' E 014°49'3 3.1
2015-May-18 04:28N 55°35' E 014°43'3 3.1
2015-May-18 03:33N 55°35' E 014°38'6 6.2
2015-May-18 02:32N 55°35' E 014°27'10 0.2
2015-May-16 04:20N 55°35' E 014°45'4 0.4
2015-May-15 16:08N 55°34' E 014°38'2 3.3
2015-May-15 15:33N 55°35' E 014°41'2 2.3
2015-May-15 14:30N 55°35' E 014°45'9 2.8
2015-May-15 11:13N 55°32' E 015°00'2 3.0
2015-May-15 10:30N 55°32' E 015°04'2 0.7
2015-May-15 08:03N 55°34' E 015°03'3 3.2
2015-May-15 07:11N 55°34' E 014°58'6 3.1
2015-May-15 05:07N 55°34' E 014°47'2 3.1
2015-May-15 04:33N 55°35' E 014°44'4 3.1
2015-May-15 03:26N 55°35' E 014°38'14 0.9
2015-May-14 10:32N 55°34' E 015°03'3 0.8
2015-May-14 07:04N 55°32' E 014°59'21 0.7
2015-May-13 01:26N 55°33' E 014°21'0 0.0
2015-May-12 15:32N 55°33' E 014°21'0 0.0
2015-May-12 14:32N 55°33' E 014°21'0 0.0
2015-May-12 13:32N 55°33' E 014°21'0 0.0
2015-May-12 12:32N 55°33' E 014°21'0 0.0
2015-May-12 11:32N 55°33' E 014°21'0 0.0
2015-May-12 10:32N 55°33' E 014°21'0 0.0
2015-May-12 09:32N 55°33' E 014°21'0 0.0
2015-May-12 08:32N 55°33' E 014°21'0 0.0
2015-May-12 07:32N 55°33' E 014°21'0 0.0
2015-May-12 06:32N 55°33' E 014°21'0 0.0
2015-May-12 05:32N 55°33' E 014°21'0 0.0
2015-May-12 04:32N 55°33' E 014°21'0 0.0
2015-May-12 03:32N 55°33' E 014°21'0 0.0
2015-May-12 02:32N 55°33' E 014°21'0 0.0
2015-May-12 01:32N 55°33' E 014°21'11 1.3
2015-May-11 16:29N 55°34' E 014°42'2 2.5
2015-May-11 15:31N 55°34' E 014°46'7 2.4
2015-May-11 12:33N 55°34' E 014°59'  
Track history (hours):
 
Tides and Currents Weather Stations Pressure Air Temp Water Temp Dewpoint Dewpoint Depression Visibility Wind Speed Wind Dir Waves Ship Positions

Linzy

Last reported at 2015-May-21 12:32 UTC. Time now 2015-May-25 09:26 UTC.
Position N 55°32' E 014°47'.

Length 15 m.

Type: Fishing. MMSI: 265507290.

Date/timePositionNaut miles runAvg speedWind from/ knotsBaromVisibWave heightAir tempDewpointWater temp
2015-May-21 12:32N 55°32' E 014°47'5 1.7
2015-May-21 09:31N 55°31' E 014°56'2 1.5
2015-May-21 08:18N 55°30' E 014°58'2 2.4
2015-May-21 07:17N 55°28' E 014°56'3 3.0
2015-May-21 06:18N 55°27' E 014°51'2 3.0
2015-May-21 05:33N 55°27' E 014°47'4 3.0
2015-May-21 04:07N 55°27' E 014°40'12 0.2
2015-May-19 00:29N 55°33' E 014°22'0 0.0
2015-May-18 23:17N 55°33' E 014°22'0 0.0
2015-May-18 22:17N 55°33' E 014°22'0 0.0
2015-May-18 21:23N 55°33' E 014°22'0 0.0
2015-May-18 20:29N 55°33' E 014°22'0 0.0
2015-May-18 19:29N 55°33' E 014°22'0 0.0
2015-May-18 18:29N 55°33' E 014°22'0 0.0
2015-May-18 17:29N 55°33' E 014°22'0 0.0
2015-May-18 16:29N 55°33' E 014°22'5 5.2
2015-May-18 15:33N 55°35' E 014°30'7 6.5
2015-May-18 14:31N 55°36' E 014°41'2 2.0
2015-May-18 13:33N 55°36' E 014°45'3 2.9
2015-May-18 12:34N 55°36' E 014°50'3 2.9
2015-May-18 11:31N 55°36' E 014°55'3 2.9
2015-May-18 10:23N 55°36' E 015°01'7 1.4
2015-May-18 05:32N 55°35' E 014°49'3 3.1
2015-May-18 04:28N 55°35' E 014°43'3 3.1
2015-May-18 03:33N 55°35' E 014°38'6 6.2
2015-May-18 02:32N 55°35' E 014°27'10 0.2
2015-May-16 04:20N 55°35' E 014°45'4 0.4
2015-May-15 16:08N 55°34' E 014°38'2 3.3
2015-May-15 15:33N 55°35' E 014°41'2 2.3
2015-May-15 14:30N 55°35' E 014°45'9 2.8
2015-May-15 11:13N 55°32' E 015°00'2 3.0
2015-May-15 10:30N 55°32' E 015°04'2 0.7
2015-May-15 08:03N 55°34' E 015°03'3 3.2
2015-May-15 07:11N 55°34' E 014°58'6 3.1
2015-May-15 05:07N 55°34' E 014°47'2 3.1
2015-May-15 04:33N 55°35' E 014°44'4 3.1
2015-May-15 03:26N 55°35' E 014°38'14 0.9
2015-May-14 10:32N 55°34' E 015°03'3 0.8
2015-May-14 07:04N 55°32' E 014°59'21 0.7
2015-May-13 01:26N 55°33' E 014°21'0 0.0
2015-May-12 15:32N 55°33' E 014°21'0 0.0
2015-May-12 14:32N 55°33' E 014°21'0 0.0
2015-May-12 13:32N 55°33' E 014°21'0 0.0
2015-May-12 12:32N 55°33' E 014°21'0 0.0
2015-May-12 11:32N 55°33' E 014°21'0 0.0
2015-May-12 10:32N 55°33' E 014°21'0 0.0
2015-May-12 09:32N 55°33' E 014°21'0 0.0
2015-May-12 08:32N 55°33' E 014°21'0 0.0
2015-May-12 07:32N 55°33' E 014°21'0 0.0
2015-May-12 06:32N 55°33' E 014°21'0 0.0
2015-May-12 05:32N 55°33' E 014°21'0 0.0
2015-May-12 04:32N 55°33' E 014°21'0 0.0
2015-May-12 03:32N 55°33' E 014°21'0 0.0
2015-May-12 02:32N 55°33' E 014°21'0 0.0
2015-May-12 01:32N 55°33' E 014°21'11 1.3
2015-May-11 16:29N 55°34' E 014°42'2 2.5
2015-May-11 15:31N 55°34' E 014°46'7 2.4
2015-May-11 12:33N 55°34' E 014°59'  

Dump ship's entire track history